createdAt,value
2018-05-03T00:00:04.299Z,3.13
2018-05-03T00:02:32.419Z,3.30
2018-05-03T00:05:00.568Z,3.00
2018-05-03T00:07:28.672Z,3.33
2018-05-03T00:09:56.790Z,4.47
2018-05-03T00:12:24.896Z,3.47
2018-05-03T00:14:53.003Z,3.53
2018-05-03T00:17:21.127Z,3.40
2018-05-03T00:19:49.284Z,3.07
2018-05-03T00:22:17.379Z,3.70
2018-05-03T00:24:45.577Z,3.63
2018-05-03T00:27:13.779Z,3.33
2018-05-03T00:29:41.884Z,5.00
2018-05-03T00:32:10.051Z,4.00
2018-05-03T00:34:38.183Z,4.00
2018-05-03T00:37:06.312Z,5.90
2018-05-03T00:39:34.422Z,4.00
2018-05-03T00:42:02.552Z,5.80
2018-05-03T00:44:30.988Z,4.00
2018-05-03T00:46:59.119Z,4.70
2018-05-03T00:49:27.246Z,6.20
2018-05-03T00:51:55.395Z,5.00
2018-05-03T00:54:35.444Z,5.30
2018-05-03T00:57:03.565Z,5.53
2018-05-03T00:59:31.660Z,7.93
2018-05-03T01:02:00.607Z,4.67
2018-05-03T01:04:28.731Z,4.77
2018-05-03T01:06:57.651Z,4.67
2018-05-03T01:09:25.779Z,4.63
2018-05-03T01:11:53.894Z,4.70
2018-05-03T01:14:22.782Z,5.13
2018-05-03T01:16:51.665Z,4.53
2018-05-03T01:19:20.363Z,4.60
2018-05-03T01:21:49.244Z,4.23
2018-05-03T01:24:17.392Z,4.93
2018-05-03T01:26:45.500Z,4.33
2018-05-03T01:29:13.713Z,4.50
2018-05-03T01:31:41.895Z,5.30
2018-05-03T01:34:10.025Z,4.60
2018-05-03T01:36:38.171Z,5.00
2018-05-03T01:39:06.293Z,4.77
2018-05-03T01:41:35.182Z,4.83
2018-05-03T01:44:03.378Z,5.13
2018-05-03T01:46:32.268Z,4.27
2018-05-03T01:49:01.157Z,5.30
2018-05-03T01:51:29.251Z,4.73
2018-05-03T01:53:57.546Z,4.57
2018-05-03T01:56:25.636Z,4.13
2018-05-03T01:58:53.730Z,4.60
2018-05-03T02:01:21.961Z,4.47
2018-05-03T02:03:50.167Z,4.07
2018-05-03T02:06:18.320Z,4.20
2018-05-03T02:08:46.443Z,4.63
2018-05-03T02:11:14.590Z,4.77
2018-05-03T02:13:42.747Z,3.63
2018-05-03T02:16:11.662Z,3.77
2018-05-03T02:18:39.779Z,3.87
2018-05-03T02:21:07.885Z,3.87
2018-05-03T02:23:36.800Z,3.83
2018-05-03T02:26:04.890Z,3.03
2018-05-03T02:28:33.020Z,3.93
2018-05-03T02:31:01.144Z,3.00
2018-05-03T02:33:29.276Z,3.30
2018-05-03T02:35:57.432Z,3.03
2018-05-03T02:38:25.544Z,3.50
2018-05-03T02:40:54.428Z,3.07
2018-05-03T02:43:23.269Z,3.17
2018-05-03T02:45:51.395Z,3.57
2018-05-03T02:48:20.289Z,3.20
2018-05-03T02:50:48.520Z,2.77
2018-05-03T02:53:16.676Z,2.90
2018-05-03T02:55:45.553Z,2.70
2018-05-03T02:58:25.608Z,2.83
2018-05-03T03:01:23.746Z,2.60
2018-05-03T03:04:09.476Z,2.63
2018-05-03T03:06:55.335Z,2.57
2018-05-03T03:09:41.076Z,2.67
2018-05-03T03:12:26.911Z,2.43
2018-05-03T03:15:13.370Z,2.50
2018-05-03T03:18:14.262Z,2.70
2018-05-03T03:21:12.789Z,2.23
2018-05-03T03:23:59.211Z,2.50
2018-05-03T03:27:00.505Z,2.27
2018-05-03T03:29:43.432Z,2.23
2018-05-03T03:32:23.244Z,1.93
2018-05-03T03:35:03.183Z,2.57
2018-05-03T03:37:43.146Z,1.87
2018-05-03T03:40:25.075Z,1.90
2018-05-03T03:43:26.708Z,1.70
2018-05-03T03:45:54.856Z,2.00
2018-05-03T03:48:22.989Z,1.90
2018-05-03T03:50:51.296Z,1.80
2018-05-03T03:53:20.303Z,1.50
2018-05-03T03:55:48.360Z,2.17
2018-05-03T03:58:16.513Z,1.60
2018-05-03T04:00:44.816Z,2.10
2018-05-03T04:03:12.933Z,1.60
2018-05-03T04:05:41.168Z,1.70
2018-05-03T04:08:09.341Z,1.87
2018-05-03T04:10:38.242Z,2.13
2018-05-03T04:13:06.372Z,1.63
2018-05-03T04:15:34.512Z,2.03
2018-05-03T04:18:14.531Z,1.87
2018-05-03T04:21:03.576Z,1.83
2018-05-03T04:23:43.501Z,1.80
2018-05-03T04:26:19.479Z,2.23
2018-05-03T04:28:47.580Z,1.90
2018-05-03T04:31:15.703Z,1.67
2018-05-03T04:33:44.701Z,1.90
2018-05-03T04:36:13.588Z,1.93
2018-05-03T04:38:42.520Z,1.93
2018-05-03T04:41:10.627Z,2.50
2018-05-03T04:43:38.778Z,2.13
2018-05-03T04:46:06.872Z,2.00
2018-05-03T04:48:34.980Z,2.50
2018-05-03T04:51:03.103Z,2.00
2018-05-03T04:53:31.195Z,2.17
2018-05-03T04:55:59.306Z,1.93
2018-05-03T04:58:27.413Z,2.00
2018-05-03T05:00:56.307Z,2.00
2018-05-03T05:03:24.415Z,1.70
2018-05-03T05:05:54.140Z,1.67
2018-05-03T05:08:22.264Z,2.07
2018-05-03T05:10:51.139Z,1.93
2018-05-03T05:13:19.243Z,1.60
2018-05-03T05:15:47.339Z,1.73
2018-05-03T05:18:15.457Z,1.50
2018-05-03T05:20:43.556Z,1.50
2018-05-03T05:23:12.448Z,1.60
2018-05-03T05:25:40.555Z,1.40
2018-05-03T05:28:08.695Z,1.53
2018-05-03T05:30:36.897Z,1.53
2018-05-03T05:33:05.004Z,1.57
2018-05-03T05:35:33.189Z,1.37
2018-05-03T05:38:01.361Z,1.50
2018-05-03T05:40:29.499Z,1.60
2018-05-03T05:42:58.428Z,1.70
2018-05-03T05:45:26.567Z,1.67
2018-05-03T05:47:54.671Z,1.80
2018-05-03T05:50:22.959Z,1.90
2018-05-03T05:52:51.074Z,1.43
2018-05-03T05:55:19.199Z,2.00
2018-05-03T05:57:47.341Z,1.40
2018-05-03T06:00:15.455Z,1.80
2018-05-03T06:02:43.580Z,1.80
2018-05-03T06:05:11.695Z,2.07
2018-05-03T06:07:39.801Z,1.87
2018-05-03T06:10:07.903Z,1.67
2018-05-03T06:12:36.030Z,1.57
2018-05-03T06:15:04.975Z,1.90
2018-05-03T06:17:33.095Z,1.63
2018-05-03T06:20:01.986Z,1.83
2018-05-03T06:22:30.109Z,2.33
2018-05-03T06:24:58.231Z,1.60
2018-05-03T06:27:26.376Z,1.73
2018-05-03T06:29:54.495Z,2.00
2018-05-03T06:32:23.376Z,2.00
2018-05-03T06:34:51.494Z,2.27
2018-05-03T06:37:19.623Z,1.83
2018-05-03T06:39:47.751Z,1.60
2018-05-03T06:42:15.912Z,1.90
2018-05-03T06:44:44.032Z,1.80
2018-05-03T06:47:12.144Z,2.17
2018-05-03T06:49:40.296Z,2.00
2018-05-03T06:52:08.396Z,1.80
2018-05-03T06:54:36.517Z,2.40
2018-05-03T06:57:04.662Z,2.00
2018-05-03T06:59:32.747Z,2.30
2018-05-03T07:02:00.877Z,1.53
2018-05-03T07:04:29.012Z,2.37
2018-05-03T07:06:57.100Z,1.70
2018-05-03T07:09:25.187Z,1.57
2018-05-03T07:11:53.317Z,2.00
2018-05-03T07:14:21.404Z,2.17
2018-05-03T07:16:49.518Z,1.70
2018-05-03T07:19:17.625Z,2.10
2018-05-03T07:21:45.715Z,1.80
2018-05-03T07:24:13.839Z,2.17
2018-05-03T07:26:41.959Z,2.40
2018-05-03T07:29:10.083Z,2.00
2018-05-03T07:31:38.265Z,1.90
2018-05-03T07:34:07.131Z,2.37
2018-05-03T07:36:36.008Z,2.13
2018-05-03T07:39:04.126Z,1.70
2018-05-03T07:41:32.236Z,1.87
2018-05-03T07:44:00.640Z,1.90
2018-05-03T07:46:28.775Z,2.00
2018-05-03T07:48:56.890Z,2.30
2018-05-03T07:51:24.985Z,1.73
2018-05-03T07:53:53.087Z,2.10
2018-05-03T07:56:21.187Z,1.53
2018-05-03T07:58:49.320Z,1.57
2018-05-03T08:01:18.226Z,1.60
2018-05-03T08:03:47.086Z,1.60
2018-05-03T08:06:15.205Z,1.50
2018-05-03T08:08:43.308Z,2.00
2018-05-03T08:11:11.480Z,1.73
2018-05-03T08:13:39.619Z,1.60
2018-05-03T08:16:07.734Z,1.73
2018-05-03T08:18:35.836Z,2.07
2018-05-03T08:21:03.948Z,2.03
2018-05-03T08:23:32.828Z,1.60
2018-05-03T08:26:00.932Z,1.50
2018-05-03T08:28:29.850Z,1.90
2018-05-03T08:30:58.729Z,1.97
2018-05-03T08:33:26.842Z,1.60
2018-05-03T08:35:54.959Z,1.10
2018-05-03T08:38:23.457Z,1.70
2018-05-03T08:40:52.327Z,2.10
2018-05-03T08:43:20.488Z,1.90
2018-05-03T08:45:48.623Z,1.80
2018-05-03T08:48:16.749Z,1.77
2018-05-03T08:50:44.867Z,1.67
2018-05-03T08:53:12.999Z,2.20
2018-05-03T08:55:41.200Z,1.80
2018-05-03T08:58:10.009Z,1.70
2018-05-03T09:00:38.904Z,1.73
2018-05-03T09:03:07.796Z,1.93
2018-05-03T09:05:36.684Z,1.67
2018-05-03T09:08:04.796Z,2.00
2018-05-03T09:10:32.964Z,1.90
2018-05-03T09:13:01.105Z,1.50
2018-05-03T09:15:29.209Z,2.03
2018-05-03T09:17:58.081Z,1.80
2018-05-03T09:20:26.976Z,1.90
2018-05-03T09:22:55.068Z,1.63
2018-05-03T09:25:23.954Z,1.80
2018-05-03T09:27:52.127Z,1.53
2018-05-03T09:30:20.326Z,1.60
2018-05-03T09:32:49.179Z,1.10
2018-05-03T09:35:17.277Z,1.83
2018-05-03T09:37:46.211Z,2.07
2018-05-03T09:40:14.331Z,1.70
2018-05-03T09:42:43.235Z,1.50
2018-05-03T09:45:12.971Z,1.73
2018-05-03T09:47:41.825Z,1.80
2018-05-03T09:50:09.926Z,1.37
2018-05-03T09:52:38.048Z,2.17
2018-05-03T09:55:06.166Z,1.73
2018-05-03T09:57:34.280Z,1.50
2018-05-03T10:00:03.156Z,1.30
2018-05-03T10:02:32.035Z,1.20
2018-05-03T10:05:00.128Z,1.43
2018-05-03T10:07:29.000Z,1.43
2018-05-03T10:09:57.115Z,1.47
2018-05-03T10:12:25.302Z,1.57
2018-05-03T10:14:53.397Z,1.83
2018-05-03T10:17:21.516Z,2.00
2018-05-03T10:19:49.672Z,1.50
2018-05-03T10:22:17.854Z,1.63
2018-05-03T10:24:46.668Z,1.60
2018-05-03T10:27:14.772Z,2.43
2018-05-03T10:29:43.036Z,1.57
2018-05-03T10:32:11.168Z,1.80
2018-05-03T10:34:39.319Z,1.57
2018-05-03T10:37:07.461Z,1.70
2018-05-03T10:39:35.556Z,1.47
2018-05-03T10:42:03.730Z,1.40
2018-05-03T10:44:31.793Z,1.83
2018-05-03T10:46:59.904Z,1.67
2018-05-03T10:49:28.038Z,1.30
2018-05-03T10:51:56.170Z,1.30
2018-05-03T10:54:24.262Z,1.50
2018-05-03T10:56:52.403Z,1.57
2018-05-03T10:59:20.520Z,1.37
2018-05-03T11:01:48.628Z,1.53
2018-05-03T11:04:16.733Z,1.40
2018-05-03T11:06:44.895Z,1.30
2018-05-03T11:09:13.821Z,1.60
2018-05-03T11:11:41.944Z,1.20
2018-05-03T11:14:10.043Z,1.40
2018-05-03T11:16:38.228Z,1.00
2018-05-03T11:19:06.285Z,1.43
2018-05-03T11:21:34.388Z,0.87
2018-05-03T11:24:02.509Z,1.40
2018-05-03T11:26:30.609Z,1.33
2018-05-03T11:28:58.744Z,1.10
2018-05-03T11:31:26.911Z,1.30
2018-05-03T11:33:54.977Z,1.17
2018-05-03T11:36:23.139Z,1.10
2018-05-03T11:38:52.015Z,1.30
2018-05-03T11:41:20.112Z,1.17
2018-05-03T11:43:48.233Z,1.00
2018-05-03T11:46:16.357Z,1.10
2018-05-03T11:48:45.242Z,0.70
2018-05-03T11:51:13.340Z,1.10
2018-05-03T11:53:41.500Z,1.07
2018-05-03T11:56:10.385Z,1.30
2018-05-03T11:58:38.526Z,0.73
2018-05-03T12:01:06.627Z,0.90
2018-05-03T12:03:34.737Z,1.17
2018-05-03T12:06:03.660Z,1.23
2018-05-03T12:08:32.520Z,0.97
2018-05-03T12:11:01.409Z,1.10
2018-05-03T12:13:30.291Z,1.30
2018-05-03T12:15:58.409Z,0.70
2018-05-03T12:18:26.576Z,1.20
2018-05-03T12:20:54.746Z,1.10
2018-05-03T12:23:23.629Z,0.90
2018-05-03T12:25:51.739Z,1.27
2018-05-03T12:28:19.856Z,1.07
2018-05-03T12:30:47.973Z,1.10
2018-05-03T12:33:16.863Z,1.30
2018-05-03T12:35:45.731Z,0.97
2018-05-03T12:38:13.838Z,1.03
2018-05-03T12:40:42.717Z,0.70
2018-05-03T12:43:10.865Z,1.10
2018-05-03T12:45:38.976Z,1.10
2018-05-03T12:48:07.138Z,0.53
2018-05-03T12:50:35.282Z,1.00
2018-05-03T12:53:03.400Z,1.03
2018-05-03T12:55:31.529Z,0.90
2018-05-03T12:57:59.648Z,1.37
2018-05-03T13:00:27.773Z,0.90
2018-05-03T13:02:55.927Z,0.90
2018-05-03T13:05:24.030Z,0.60
2018-05-03T13:07:52.137Z,0.80
2018-05-03T13:10:20.314Z,0.63
2018-05-03T13:12:48.500Z,0.70
2018-05-03T13:15:17.400Z,1.10
2018-05-03T13:17:45.488Z,0.93
2018-05-03T13:20:13.651Z,0.80
2018-05-03T13:22:42.471Z,0.90
2018-05-03T13:25:10.593Z,1.13
2018-05-03T13:27:38.731Z,1.10
2018-05-03T13:30:06.845Z,0.97
2018-05-03T13:32:34.968Z,0.73
2018-05-03T13:35:03.076Z,1.10
2018-05-03T13:37:31.227Z,0.83
2018-05-03T13:40:00.158Z,1.17
2018-05-03T13:42:28.247Z,0.63
2018-05-03T13:44:56.363Z,1.10
2018-05-03T13:47:24.471Z,1.20
2018-05-03T13:49:53.358Z,1.00
2018-05-03T13:52:22.237Z,1.10
2018-05-03T13:54:50.349Z,0.90
2018-05-03T13:57:18.456Z,1.00
2018-05-03T13:59:46.595Z,1.10
2018-05-03T14:02:14.730Z,0.90
2018-05-03T14:04:42.842Z,0.80
2018-05-03T14:07:11.797Z,0.80
2018-05-03T14:09:39.868Z,0.73
2018-05-03T14:12:07.986Z,0.87
2018-05-03T14:14:36.858Z,1.03
2018-05-03T14:17:04.998Z,1.17
2018-05-03T14:19:33.088Z,1.30
2018-05-03T14:22:01.214Z,0.70
2018-05-03T14:24:30.151Z,0.93
2018-05-03T14:26:58.293Z,1.07
2018-05-03T14:29:27.199Z,1.30
2018-05-03T14:31:56.081Z,0.80
2018-05-03T14:34:24.992Z,1.17
2018-05-03T14:36:53.081Z,0.90
2018-05-03T14:39:21.204Z,0.93
2018-05-03T14:41:49.317Z,1.00
2018-05-03T14:44:17.419Z,0.60
2018-05-03T14:46:45.536Z,0.77
2018-05-03T14:49:13.636Z,1.10
2018-05-03T14:51:41.732Z,1.27
2018-05-03T14:54:09.857Z,1.10
2018-05-03T14:56:37.959Z,0.80
2018-05-03T14:59:06.839Z,0.83
2018-05-03T15:01:34.959Z,1.00
2018-05-03T15:04:03.127Z,1.30
2018-05-03T15:06:31.329Z,1.20
2018-05-03T15:08:59.392Z,1.57
2018-05-03T15:11:27.536Z,1.40
2018-05-03T15:13:56.520Z,1.20
2018-05-03T15:16:24.625Z,0.77
2018-05-03T15:18:52.724Z,1.50
2018-05-03T15:21:20.867Z,1.57
2018-05-03T15:23:49.754Z,1.17
2018-05-03T15:26:18.612Z,1.07
2018-05-03T15:28:46.720Z,1.07
2018-05-03T15:31:14.859Z,0.93
2018-05-03T15:33:43.016Z,1.50
2018-05-03T15:36:11.053Z,1.47
2018-05-03T15:38:39.933Z,1.10
2018-05-03T15:41:08.040Z,1.23
2018-05-03T15:43:36.140Z,1.30
2018-05-03T15:46:04.268Z,0.97
2018-05-03T15:48:32.367Z,1.00
2018-05-03T15:51:01.255Z,1.13
2018-05-03T15:53:29.436Z,1.37
2018-05-03T15:55:58.402Z,1.43
2018-05-03T15:58:26.503Z,1.07
2018-05-03T16:00:54.618Z,0.93
2018-05-03T16:03:22.719Z,0.90
2018-05-03T16:05:50.828Z,0.90
2018-05-03T16:08:19.692Z,1.17
2018-05-03T16:10:47.788Z,1.37
2018-05-03T16:13:15.906Z,1.20
2018-05-03T16:15:44.021Z,1.33
2018-05-03T16:18:12.892Z,1.00
2018-05-03T16:20:40.998Z,1.03
2018-05-03T16:23:09.105Z,1.20
2018-05-03T16:25:37.232Z,1.30
2018-05-03T16:28:05.334Z,1.00
2018-05-03T16:30:33.444Z,1.17
2018-05-03T16:33:02.354Z,0.93
2018-05-03T16:35:30.452Z,1.43
2018-05-03T16:37:58.552Z,1.20
2018-05-03T16:40:26.676Z,0.93
2018-05-03T16:42:55.561Z,1.60
2018-05-03T16:45:24.444Z,1.03
2018-05-03T16:47:53.332Z,1.40
2018-05-03T16:50:21.452Z,1.30
2018-05-03T16:52:49.617Z,1.27
2018-05-03T16:55:18.490Z,1.10
2018-05-03T16:57:46.587Z,1.10
2018-05-03T17:00:14.724Z,1.70
2018-05-03T17:02:42.832Z,1.40
2018-05-03T17:05:11.819Z,1.33
2018-05-03T17:07:40.688Z,1.00
2018-05-03T17:10:08.804Z,1.40
2018-05-03T17:12:37.705Z,1.30
2018-05-03T17:15:06.616Z,1.10
2018-05-03T17:17:34.736Z,1.13
2018-05-03T17:20:02.923Z,1.10
2018-05-03T17:22:31.089Z,1.47
2018-05-03T17:24:59.184Z,1.00
2018-05-03T17:27:28.154Z,0.90
2018-05-03T17:29:56.232Z,1.17
2018-05-03T17:32:24.786Z,1.00
2018-05-03T17:34:53.765Z,1.03
2018-05-03T17:37:21.871Z,1.27
2018-05-03T17:39:50.081Z,0.90
2018-05-03T17:42:18.224Z,1.00
2018-05-03T17:44:46.330Z,1.47
2018-05-03T17:47:14.472Z,1.10
2018-05-03T17:49:42.596Z,1.40
2018-05-03T17:52:10.689Z,0.90
2018-05-03T17:54:38.913Z,1.10
2018-05-03T17:57:07.900Z,1.23
2018-05-03T17:59:36.032Z,1.10
2018-05-03T18:02:04.128Z,1.20
2018-05-03T18:04:32.244Z,1.20
2018-05-03T18:07:00.351Z,1.23
2018-05-03T18:09:28.460Z,1.00
2018-05-03T18:11:57.580Z,1.37
2018-05-03T18:14:25.673Z,1.07
2018-05-03T18:19:14.595Z,1.23
2018-05-03T18:21:42.694Z,1.90
2018-05-03T18:24:11.554Z,1.53
2018-05-03T18:26:39.731Z,1.97
2018-05-03T18:29:07.848Z,1.47
2018-05-03T18:31:35.959Z,2.40
2018-05-03T18:34:04.086Z,2.00
2018-05-03T18:36:32.187Z,2.20
2018-05-03T18:39:00.301Z,1.90
2018-05-03T18:41:28.437Z,1.80
2018-05-03T18:43:56.668Z,1.50
2018-05-03T18:46:25.464Z,1.73
2018-05-03T18:48:53.576Z,1.70
2018-05-03T18:51:22.491Z,1.37
2018-05-03T18:53:51.376Z,1.87
2018-05-03T18:56:20.223Z,1.60
2018-05-03T18:58:48.339Z,1.43
2018-05-03T19:01:17.284Z,1.30
2018-05-03T19:03:45.394Z,1.43
2018-05-03T19:06:13.488Z,1.23
2018-05-03T19:08:41.644Z,1.47
2018-05-03T19:11:09.744Z,1.33
2018-05-03T19:13:37.869Z,1.20
2018-05-03T19:16:05.995Z,1.30
2018-05-03T19:18:34.874Z,1.93
2018-05-03T19:21:03.759Z,1.60
2018-05-03T19:23:32.279Z,1.43
2018-05-03T19:26:00.379Z,1.30
2018-05-03T19:28:28.489Z,1.27
2018-05-03T19:30:56.630Z,2.47
2018-05-03T19:33:25.458Z,1.90
2018-05-03T19:35:53.680Z,1.60
2018-05-03T19:38:21.783Z,1.50
2018-05-03T19:40:49.899Z,1.60
2018-05-03T19:43:18.004Z,1.50
2018-05-03T19:45:46.101Z,1.43
2018-05-03T19:48:14.224Z,1.53
2018-05-03T19:50:42.320Z,1.10
2018-05-03T19:53:11.207Z,1.27
2018-05-03T19:55:39.304Z,1.33
2018-05-03T19:58:08.177Z,1.60
2018-05-03T20:00:36.277Z,1.40
2018-05-03T20:03:04.407Z,1.43
2018-05-03T20:05:32.507Z,1.20
2018-05-03T20:08:01.409Z,1.53
2018-05-03T20:10:30.284Z,1.10
2018-05-03T20:12:58.388Z,1.37
2018-05-03T20:15:27.260Z,2.00
2018-05-03T20:17:55.346Z,1.60
2018-05-03T20:20:24.223Z,1.60
2018-05-03T20:22:52.332Z,1.60
2018-05-03T20:25:21.207Z,1.90
2018-05-03T20:27:49.317Z,2.10
2018-05-03T20:30:17.420Z,1.60
2018-05-03T20:32:45.594Z,1.40
2018-05-03T20:35:13.603Z,1.37
2018-05-03T20:37:41.703Z,1.67
2018-05-03T20:40:10.337Z,1.60
2018-05-03T20:42:38.460Z,1.57
2018-05-03T20:45:06.573Z,1.80
2018-05-03T20:47:34.675Z,1.47
2018-05-03T20:50:02.804Z,2.27
2018-05-03T20:52:31.663Z,1.67
2018-05-03T20:54:59.943Z,1.60
2018-05-03T20:57:28.052Z,1.50
2018-05-03T20:59:56.943Z,1.57
2018-05-03T21:02:25.841Z,1.23
2018-05-03T21:04:54.703Z,1.53
2018-05-03T21:07:22.807Z,1.50
2018-05-03T21:09:51.673Z,1.37
2018-05-03T21:12:19.774Z,1.30
2018-05-03T21:14:47.892Z,1.30
2018-05-03T21:17:15.987Z,1.63
2018-05-03T21:19:44.096Z,1.20
2018-05-03T21:22:12.967Z,1.37
2018-05-03T21:24:41.085Z,1.20
2018-05-03T21:27:09.956Z,1.77
2018-05-03T21:29:38.905Z,1.73
2018-05-03T21:32:07.021Z,1.90
2018-05-03T21:34:35.152Z,1.63
2018-05-03T21:37:03.251Z,1.53
2018-05-03T21:39:31.355Z,1.80
2018-05-03T21:41:59.460Z,2.17
2018-05-03T21:44:28.347Z,1.60
2018-05-03T21:46:57.235Z,1.70
2018-05-03T21:49:26.127Z,1.17
2018-05-03T21:51:54.242Z,1.17
2018-05-03T21:54:22.386Z,1.20
2018-05-03T21:56:50.467Z,1.57
2018-05-03T21:59:18.576Z,1.73
2018-05-03T22:01:46.699Z,2.40
2018-05-03T22:04:14.800Z,1.40
2018-05-03T22:06:42.907Z,1.50
2018-05-03T22:09:11.019Z,1.70
2018-05-03T22:11:39.140Z,1.47
2018-05-03T22:14:07.219Z,1.73
2018-05-03T22:16:35.344Z,1.70
2018-05-03T22:19:03.459Z,1.23
2018-05-03T22:21:32.357Z,1.43
2018-05-03T22:24:01.227Z,1.60
2018-05-03T22:26:29.344Z,1.87
2018-05-03T22:28:57.475Z,1.80
2018-05-03T22:31:25.623Z,1.70
2018-05-03T22:33:53.726Z,1.33
2018-05-03T22:36:21.809Z,1.77
2018-05-03T22:38:49.939Z,1.30
2018-05-03T22:41:18.056Z,1.50
2018-05-03T22:43:46.174Z,3.03
2018-05-03T22:46:14.268Z,2.43
2018-05-03T22:48:42.386Z,1.27
2018-05-03T22:51:10.475Z,1.47
2018-05-03T22:53:38.570Z,1.40
2018-05-03T22:56:07.448Z,1.60
2018-05-03T22:58:35.572Z,1.50
2018-05-03T23:01:03.644Z,1.17
2018-05-03T23:03:31.771Z,1.70
2018-05-03T23:05:59.875Z,1.53
2018-05-03T23:08:28.043Z,1.83
2018-05-03T23:10:56.908Z,1.87
2018-05-03T23:13:25.029Z,1.90
2018-05-03T23:15:53.895Z,1.50
2018-05-03T23:18:22.009Z,1.23
2018-05-03T23:20:50.124Z,1.37
2018-05-03T23:23:18.228Z,1.57
2018-05-03T23:25:46.326Z,1.60
2018-05-03T23:28:15.196Z,1.17
2018-05-03T23:30:43.303Z,2.30
2018-05-03T23:33:11.396Z,1.50
2018-05-03T23:35:39.527Z,1.40
2018-05-03T23:38:07.612Z,1.40
2018-05-03T23:40:36.476Z,1.30
2018-05-03T23:43:04.608Z,1.53
2018-05-03T23:45:32.699Z,1.27
2018-05-03T23:48:00.805Z,1.27
2018-05-03T23:50:28.899Z,1.10
2018-05-03T23:52:57.016Z,1.50
2018-05-03T23:55:25.110Z,1.50
2018-05-03T23:57:53.237Z,1.57
